Time,TemperatureF,DewpointF,PressureIn,WindDirection,WindDirectionDegrees,WindSpeedMPH,WindSpeedGustMPH,Humidity,HourlyPrecipIn,Conditions,Clouds,dailyrainin,SoftwareType,DateUTC
2013-03-12 00:05:00,48.0,38.3,29.85,SSE,157,6.5,9.2,69,0.00,,,0.00,WUHU21623XXSP,2013-03-12 04:05:00,
2013-03-12 00:10:00,48.2,38.8,29.85,SSE,157,6.5,11.0,70,0.00,,,0.00,WUHU21623XXSP,2013-03-12 04:10:00,
2013-03-12 00:15:00,48.2,38.8,29.85,SSE,157,5.6,11.0,70,0.00,,,0.00,WUHU21623XXSP,2013-03-12 04:15:00,
2013-03-12 00:20:00,48.2,38.8,29.85,SSE,157,9.2,9.2,70,0.00,,,0.00,WUHU21623XXSP,2013-03-12 04:20:00,
2013-03-12 00:25:00,48.0,38.7,29.85,SSE,157,8.9,9.2,70,0.00,,,0.00,WUHU21623XXSP,2013-03-12 04:25:00,
2013-03-12 00:30:00,48.0,38.7,29.86,SE,135,6.9,11.0,70,0.00,,,0.00,WUHU21623XXSP,2013-03-12 04:30:00,
2013-03-12 00:35:00,47.8,38.9,29.85,SSE,157,6.7,11.0,71,0.00,,,0.00,WUHU21623XXSP,2013-03-12 04:35:00,
2013-03-12 00:40:00,47.7,38.7,29.84,SSE,157,10.1,10.1,71,0.00,,,0.00,WUHU21623XXSP,2013-03-12 04:40:00,
2013-03-12 00:45:00,47.8,39.2,29.85,ESE,112,5.4,10.1,72,0.00,,,0.00,WUHU21623XXSP,2013-03-12 04:45:00,
2013-03-12 00:50:00,48.0,39.0,29.84,SE,135,3.6,8.1,71,0.00,,,0.00,WUHU21623XXSP,2013-03-12 04:50:00,
2013-03-12 00:55:00,47.5,38.9,29.84,SE,135,6.9,6.9,72,0.00,,,0.00,WUHU21623XXSP,2013-03-12 04:55:00,
2013-03-12 01:00:00,47.8,39.2,29.84,SSE,157,2.7,6.9,72,0.00,,,0.00,WUHU21623XXSP,2013-03-12 05:00:00,
2013-03-12 01:05:00,47.7,39.0,29.84,SSE,157,7.8,7.8,72,0.00,,,0.00,WUHU21623XXSP,2013-03-12 05:05:00,
2013-03-12 01:10:00,47.8,39.2,29.84,SSE,157,5.1,11.0,72,0.00,,,0.00,WUHU21623XXSP,2013-03-12 05:10:00,
2013-03-12 01:15:00,47.8,39.2,29.83,ESE,112,7.8,11.4,72,0.00,,,0.00,WUHU21623XXSP,2013-03-12 05:15:00,
2013-03-12 01:20:00,47.8,39.2,29.83,ESE,112,6.0,11.4,72,0.00,,,0.00,WUHU21623XXSP,2013-03-12 05:20:00,
2013-03-12 01:25:00,47.8,39.5,29.83,SE,135,0.7,7.2,73,0.00,,,0.00,WUHU21623XXSP,2013-03-12 05:25:00,
2013-03-12 01:30:00,47.8,39.2,29.83,SSE,157,7.4,8.5,72,0.00,,,0.00,WUHU21623XXSP,2013-03-12 05:30:00,
2013-03-12 01:35:00,47.7,39.4,29.82,SSE,157,6.7,8.5,73,0.00,,,0.00,WUHU21623XXSP,2013-03-12 05:35:00,
2013-03-12 01:40:00,47.8,39.9,29.82,SSE,157,6.3,6.7,74,0.00,,,0.00,WUHU21623XXSP,2013-03-12 05:40:00,
2013-03-12 01:45:00,47.7,39.7,29.81,SE,135,6.0,6.9,74,0.00,,,0.00,WUHU21623XXSP,2013-03-12 05:45:00,
2013-03-12 01:50:00,47.7,40.1,29.81,SSE,157,11.0,22.4,75,0.00,,,0.00,WUHU21623XXSP,2013-03-12 05:50:00,
2013-03-12 01:55:00,47.5,39.9,29.81,SSE,157,10.3,22.4,75,0.00,,,0.00,WUHU21623XXSP,2013-03-12 05:55:00,
2013-03-12 02:00:00,47.7,40.1,29.80,SSE,157,5.6,16.8,75,0.00,,,0.00,WUHU21623XXSP,2013-03-12 06:00:00,
2013-03-12 02:05:00,47.7,40.1,29.80,SSE,157,15.4,16.8,75,0.00,,,0.00,WUHU21623XXSP,2013-03-12 06:05:00,
2013-03-12 02:10:00,47.8,40.2,29.80,SSE,157,7.4,15.4,75,0.00,,,0.00,WUHU21623XXSP,2013-03-12 06:10:00,
2013-03-12 02:15:00,47.8,40.2,29.80,SSE,157,7.4,20.1,75,0.00,,,0.00,WUHU21623XXSP,2013-03-12 06:15:00,
2013-03-12 02:20:00,48.0,40.4,29.81,SE,135,6.9,20.1,75,0.00,,,0.00,WUHU21623XXSP,2013-03-12 06:20:00,
2013-03-12 02:25:00,48.0,40.4,29.80,SSE,157,11.6,11.9,75,0.00,,,0.00,WUHU21623XXSP,2013-03-12 06:25:00,
2013-03-12 02:30:00,48.0,40.7,29.80,SSE,157,1.8,11.6,76,0.00,,,0.00,WUHU21623XXSP,2013-03-12 06:30:00,
2013-03-12 02:35:00,48.0,40.4,29.79,South,180,6.9,9.8,75,0.00,,,0.00,WUHU21623XXSP,2013-03-12 06:35:00,
2013-03-12 02:40:00,48.0,40.7,29.79,SSW,202,8.5,8.5,76,0.00,,,0.00,WUHU21623XXSP,2013-03-12 06:40:00,
2013-03-12 02:45:00,47.8,40.6,29.79,South,180,3.8,8.5,76,0.00,,,0.00,WUHU21623XXSP,2013-03-12 06:45:00,
2013-03-12 02:50:00,47.8,40.6,29.79,SSE,157,6.0,7.4,76,0.00,,,0.00,WUHU21623XXSP,2013-03-12 06:50:00,
2013-03-12 02:55:00,48.0,40.7,29.79,SSE,157,1.8,6.7,76,0.00,,,0.00,WUHU21623XXSP,2013-03-12 06:55:00,
2013-03-12 03:00:00,48.0,40.7,29.79,South,180,4.3,6.7,76,0.00,,,0.00,WUHU21623XXSP,2013-03-12 07:00:00,
2013-03-12 03:05:00,48.0,40.7,29.78,SE,135,1.8,8.3,76,0.00,,,0.00,WUHU21623XXSP,2013-03-12 07:05:00,
2013-03-12 03:10:00,48.0,40.7,29.79,SE,135,6.0,9.8,76,0.00,,,0.00,WUHU21623XXSP,2013-03-12 07:10:00,
2013-03-12 03:15:00,48.0,40.7,29.79,SSE,157,13.0,13.0,76,0.00,,,0.00,WUHU21623XXSP,2013-03-12 07:15:00,
2013-03-12 03:20:00,48.4,41.1,29.79,SE,135,4.7,13.0,76,0.00,,,0.00,WUHU21623XXSP,2013-03-12 07:20:00,
2013-03-12 03:25:00,48.4,41.1,29.79,SSE,157,8.3,8.3,76,0.00,,,0.00,WUHU21623XXSP,2013-03-12 07:25:00,
2013-03-12 03:30:00,48.6,41.3,29.79,South,180,6.0,8.3,76,0.00,,,0.00,WUHU21623XXSP,2013-03-12 07:30:00,
2013-03-12 03:35:00,48.6,41.3,29.79,South,180,10.3,10.3,76,0.00,,,0.00,WUHU21623XXSP,2013-03-12 07:35:00,
2013-03-12 03:40:00,48.7,41.4,29.79,SE,135,4.7,10.3,76,0.00,,,0.00,WUHU21623XXSP,2013-03-12 07:40:00,
2013-03-12 03:45:00,48.6,41.3,29.79,SSE,157,5.8,6.9,76,0.00,,,0.00,WUHU21623XXSP,2013-03-12 07:45:00,
2013-03-12 03:50:00,48.6,41.3,29.78,South,180,8.3,8.9,76,0.00,,,0.00,WUHU21623XXSP,2013-03-12 07:50:00,
2013-03-12 03:55:00,48.6,41.3,29.78,SSE,157,8.1,8.9,76,0.00,,,0.00,WUHU21623XXSP,2013-03-12 07:55:00,
2013-03-12 04:00:00,48.9,41.6,29.78,SE,135,6.9,14.3,76,0.00,,,0.00,WUHU21623XXSP,2013-03-12 08:00:00,
2013-03-12 04:05:00,48.9,41.3,29.77,SSE,157,7.2,14.3,75,0.00,,,0.00,WUHU21623XXSP,2013-03-12 08:05:00,
2013-03-12 04:10:00,48.9,41.6,29.77,South,180,11.4,11.9,76,0.00,,,0.00,WUHU21623XXSP,2013-03-12 08:10:00,
2013-03-12 04:15:00,49.1,41.8,29.78,SSE,157,11.0,11.9,76,0.00,,,0.00,WUHU21623XXSP,2013-03-12 08:15:00,
2013-03-12 04:20:00,49.3,42.0,29.77,SSE,157,8.3,11.0,76,0.00,,,0.00,WUHU21623XXSP,2013-03-12 08:20:00,
2013-03-12 04:25:00,49.3,42.0,29.77,SSE,157,10.7,13.4,76,0.00,,,0.00,WUHU21623XXSP,2013-03-12 08:25:00,
2013-03-12 04:30:00,49.1,41.8,29.77,SSE,157,7.4,13.4,76,0.00,,,0.00,WUHU21623XXSP,2013-03-12 08:30:00,
2013-03-12 04:35:00,49.1,41.8,29.77,SSE,157,10.3,10.5,76,0.00,,,0.00,WUHU21623XXSP,2013-03-12 08:35:00,
2013-03-12 04:40:00,49.1,41.8,29.77,SSE,157,9.6,10.3,76,0.00,,,0.00,WUHU21623XXSP,2013-03-12 08:40:00,
2013-03-12 04:45:00,49.1,41.8,29.77,SSE,157,6.9,10.5,76,0.00,,,0.00,WUHU21623XXSP,2013-03-12 08:45:00,
2013-03-12 04:50:00,49.3,42.0,29.77,SE,135,15.4,15.4,76,0.00,,,0.00,WUHU21623XXSP,2013-03-12 08:50:00,
2013-03-12 04:55:00,49.3,42.0,29.76,SE,135,8.3,15.4,76,0.00,,,0.00,WUHU21623XXSP,2013-03-12 08:55:00,
2013-03-12 05:00:00,49.3,42.0,29.77,SW,225,12.8,12.8,76,0.00,,,0.00,WUHU21623XXSP,2013-03-12 09:00:00,
2013-03-12 05:05:00,49.3,42.0,29.76,ESE,112,6.9,12.8,76,0.00,,,0.00,WUHU21623XXSP,2013-03-12 09:05:00,
2013-03-12 05:10:00,49.1,41.8,29.76,South,180,18.1,18.1,76,0.00,,,0.00,WUHU21623XXSP,2013-03-12 09:10:00,
2013-03-12 05:15:00,49.3,42.0,29.76,SSE,157,8.3,18.1,76,0.00,,,0.00,WUHU21623XXSP,2013-03-12 09:15:00,
2013-03-12 05:20:00,49.3,42.0,29.76,ESE,112,9.4,9.4,76,0.00,,,0.00,WUHU21623XXSP,2013-03-12 09:20:00,
2013-03-12 05:25:00,48.9,41.3,29.76,SSE,157,7.8,9.4,75,0.00,,,0.00,WUHU21623XXSP,2013-03-12 09:25:00,
2013-03-12 05:30:00,48.9,41.6,29.76,SSE,157,9.8,10.1,76,0.00,,,0.00,WUHU21623XXSP,2013-03-12 09:30:00,
2013-03-12 05:35:00,48.9,42.0,29.76,SE,135,7.6,10.1,77,0.00,,,0.00,WUHU21623XXSP,2013-03-12 09:35:00,
2013-03-12 05:40:00,49.3,42.7,29.77,SSE,157,6.9,16.6,78,0.00,,,0.00,WUHU21623XXSP,2013-03-12 09:40:00,
2013-03-12 05:45:00,49.1,42.1,29.77,South,180,2.9,16.6,77,0.00,,,0.00,WUHU21623XXSP,2013-03-12 09:45:00,
2013-03-12 05:50:00,49.1,42.5,29.77,SSE,157,6.9,7.2,78,0.00,,,0.00,WUHU21623XXSP,2013-03-12 09:50:00,
2013-03-12 05:55:00,49.1,42.5,29.77,SE,135,5.8,6.9,78,0.00,,,0.00,WUHU21623XXSP,2013-03-12 09:55:00,
2013-03-12 06:00:00,49.3,42.7,29.77,SSE,157,14.5,14.5,78,0.00,,,0.00,WUHU21623XXSP,2013-03-12 10:00:00,
2013-03-12 06:05:00,49.3,42.7,29.77,SSE,157,12.1,14.5,78,0.00,,,0.00,WUHU21623XXSP,2013-03-12 10:05:00,
2013-03-12 06:10:00,49.6,42.7,29.77,SE,135,1.6,12.3,77,0.00,,,0.00,WUHU21623XXSP,2013-03-12 10:10:00,
2013-03-12 06:15:00,49.8,42.9,29.77,South,180,7.8,12.3,77,0.00,,,0.00,WUHU21623XXSP,2013-03-12 10:15:00,
2013-03-12 06:20:00,49.6,42.7,29.76,SSE,157,6.9,9.2,77,0.00,,,0.00,WUHU21623XXSP,2013-03-12 10:20:00,
2013-03-12 06:25:00,49.6,43.0,29.76,SSE,157,8.7,8.7,78,0.00,,,0.00,WUHU21623XXSP,2013-03-12 10:25:00,
2013-03-12 06:30:00,49.1,43.5,29.76,South,180,9.6,13.9,81,0.00,,,0.00,WUHU21623XXSP,2013-03-12 10:30:00,
2013-03-12 06:35:00,48.9,43.6,29.76,SSE,157,16.6,16.6,82,0.00,,,0.00,WUHU21623XXSP,2013-03-12 10:35:00,
2013-03-12 06:40:00,48.9,43.6,29.76,SE,135,6.3,16.6,82,0.00,,,0.00,WUHU21623XXSP,2013-03-12 10:40:00,
2013-03-12 06:45:00,48.7,43.4,29.76,South,180,8.7,14.8,82,0.00,,,0.00,WUHU21623XXSP,2013-03-12 10:45:00,
2013-03-12 06:50:00,48.7,43.8,29.75,South,180,6.5,11.9,83,0.00,,,0.00,WUHU21623XXSP,2013-03-12 10:50:00,
2013-03-12 06:55:00,48.4,43.4,29.75,SSE,157,12.8,12.8,83,0.00,,,0.00,WUHU21623XXSP,2013-03-12 10:55:00,
2013-03-12 07:00:00,48.0,43.4,29.75,SSE,157,3.4,12.8,84,0.00,,,0.00,WUHU21623XXSP,2013-03-12 11:00:00,
2013-03-12 07:05:00,48.0,43.4,29.75,SSE,157,7.6,10.3,84,0.00,,,0.00,WUHU21623XXSP,2013-03-12 11:05:00,
2013-03-12 07:10:00,47.8,43.2,29.75,SSE,157,2.0,10.3,84,0.00,,,0.00,WUHU21623XXSP,2013-03-12 11:10:00,
2013-03-12 07:15:00,47.5,43.2,29.76,SSE,157,11.0,11.0,85,0.00,,,0.00,WUHU21623XXSP,2013-03-12 11:15:00,
2013-03-12 07:20:00,47.3,43.0,29.76,SSE,157,6.9,11.0,85,0.00,,,0.00,WUHU21623XXSP,2013-03-12 11:20:00,
2013-03-12 07:25:00,47.3,43.0,29.76,South,180,8.5,8.5,85,0.00,,,0.00,WUHU21623XXSP,2013-03-12 11:25:00,
2013-03-12 07:30:00,47.3,43.3,29.76,SSE,157,7.8,8.5,86,0.00,,,0.00,WUHU21623XXSP,2013-03-12 11:30:00,
2013-03-12 07:35:00,47.3,43.3,29.76,South,180,3.6,7.8,86,0.00,,,0.00,WUHU21623XXSP,2013-03-12 11:35:00,
2013-03-12 07:40:00,47.1,43.2,29.76,SE,135,6.9,6.9,86,0.00,,,0.00,WUHU21623XXSP,2013-03-12 11:40:00,
2013-03-12 07:45:00,47.1,43.2,29.76,SSE,157,5.8,8.7,86,0.00,,,0.00,WUHU21623XXSP,2013-03-12 11:45:00,
2013-03-12 07:50:00,47.3,43.3,29.76,South,180,9.6,9.6,86,0.00,,,0.00,WUHU21623XXSP,2013-03-12 11:50:00,
2013-03-12 07:55:00,47.1,43.2,29.76,ESE,112,11.2,11.2,86,0.00,,,0.00,WUHU21623XXSP,2013-03-12 11:55:00,
2013-03-12 08:00:00,47.3,43.3,29.76,SSE,157,8.9,11.2,86,0.00,,,0.00,WUHU21623XXSP,2013-03-12 12:00:00,
2013-03-12 08:05:00,47.3,43.3,29.76,SE,135,2.9,8.9,86,0.00,,,0.00,WUHU21623XXSP,2013-03-12 12:05:00,
2013-03-12 08:10:00,47.3,43.3,29.76,SSE,157,7.2,7.2,86,0.00,,,0.00,WUHU21623XXSP,2013-03-12 12:10:00,
2013-03-12 08:15:00,47.5,43.5,29.76,South,180,8.5,8.5,86,0.00,,,0.00,WUHU21623XXSP,2013-03-12 12:15:00,
2013-03-12 08:20:00,47.8,43.5,29.76,South,180,7.8,8.5,85,0.00,,,0.00,WUHU21623XXSP,2013-03-12 12:20:00,
2013-03-12 08:25:00,47.8,43.5,29.76,SSE,157,4.3,7.8,85,0.00,,,0.00,WUHU21623XXSP,2013-03-12 12:25:00,
2013-03-12 08:30:00,47.5,43.2,29.76,SSE,157,1.6,5.1,85,0.00,,,0.00,WUHU21623XXSP,2013-03-12 12:30:00,
2013-03-12 08:35:00,47.3,43.3,29.76,SSE,157,0.0,5.6,86,0.00,,,0.00,WUHU21623XXSP,2013-03-12 12:35:00,
2013-03-12 08:40:00,47.5,43.5,29.76,SSE,157,2.9,5.6,86,0.00,,,0.00,WUHU21623XXSP,2013-03-12 12:40:00,
2013-03-12 08:45:00,47.3,43.3,29.77,SSW,202,2.0,4.3,86,0.00,,,0.00,WUHU21623XXSP,2013-03-12 12:45:00,
2013-03-12 08:50:00,47.5,43.5,29.77,WSW,247,0.9,4.3,86,0.00,,,0.00,WUHU21623XXSP,2013-03-12 12:50:00,
2013-03-12 08:55:00,47.5,43.5,29.77,SSE,157,0.0,1.8,86,0.00,,,0.00,WUHU21623XXSP,2013-03-12 12:55:00,
2013-03-12 09:00:00,47.5,43.5,29.77,SSE,157,3.4,3.4,86,0.00,,,0.00,WUHU21623XXSP,2013-03-12 13:00:00,
2013-03-12 09:05:00,47.3,43.3,29.77,SE,135,0.0,3.4,86,0.00,,,0.00,WUHU21623XXSP,2013-03-12 13:05:00,
2013-03-12 09:10:00,47.3,43.3,29.77,WSW,247,0.0,0.0,86,0.00,,,0.00,WUHU21623XXSP,2013-03-12 13:10:00,
2013-03-12 09:15:00,46.8,42.8,29.77,West,270,0.0,0.0,86,0.00,,,0.00,WUHU21623XXSP,2013-03-12 13:15:00,
2013-03-12 09:20:00,46.6,42.6,29.77,West,270,0.0,0.0,86,0.00,,,0.00,WUHU21623XXSP,2013-03-12 13:20:00,
2013-03-12 09:25:00,46.0,42.1,29.77,West,270,0.0,0.0,86,0.00,,,0.00,WUHU21623XXSP,2013-03-12 13:25:00,
2013-03-12 09:30:00,45.5,41.9,29.77,West,270,0.0,0.0,87,0.00,,,0.00,WUHU21623XXSP,2013-03-12 13:30:00,
2013-03-12 09:35:00,46.0,42.4,29.78,WNW,292,3.1,3.1,87,0.00,,,0.00,WUHU21623XXSP,2013-03-12 13:35:00,
2013-03-12 09:40:00,44.4,40.5,29.78,West,270,6.9,6.9,86,0.00,,,0.00,WUHU21623XXSP,2013-03-12 13:40:00,
2013-03-12 09:45:00,41.9,38.3,29.78,NW,315,7.2,11.9,87,0.00,,,0.00,WUHU21623XXSP,2013-03-12 13:45:00,
2013-03-12 09:50:00,41.2,37.6,29.78,WNW,292,2.0,11.9,87,0.00,,,0.00,WUHU21623XXSP,2013-03-12 13:50:00,
2013-03-12 09:55:00,40.8,37.2,29.79,West,270,2.7,2.7,87,0.00,,,0.00,WUHU21623XXSP,2013-03-12 13:55:00,
2013-03-12 10:00:00,40.5,36.8,29.78,NW,315,9.2,9.2,87,0.00,,,0.00,WUHU21623XXSP,2013-03-12 14:00:00,
2013-03-12 10:05:00,40.1,36.8,29.79,West,270,6.7,9.2,88,0.00,,,0.00,WUHU21623XXSP,2013-03-12 14:05:00,
2013-03-12 10:10:00,39.9,36.6,29.79,WNW,292,7.4,7.6,88,0.00,,,0.00,WUHU21623XXSP,2013-03-12 14:10:00,
2013-03-12 10:15:00,39.7,36.4,29.79,NW,315,4.5,7.6,88,0.00,,,0.00,WUHU21623XXSP,2013-03-12 14:15:00,
2013-03-12 10:20:00,39.7,36.4,29.79,WSW,247,1.8,6.9,88,0.00,,,0.00,WUHU21623XXSP,2013-03-12 14:20:00,
2013-03-12 10:25:00,39.6,36.3,29.79,WSW,247,6.5,6.7,88,0.00,,,0.00,WUHU21623XXSP,2013-03-12 14:25:00,
2013-03-12 10:30:00,39.4,36.1,29.79,WSW,247,0.0,6.7,88,0.00,,,0.00,WUHU21623XXSP,2013-03-12 14:30:00,
2013-03-12 10:35:00,39.4,35.8,29.80,NW,315,2.2,2.2,87,0.00,,,0.00,WUHU21623XXSP,2013-03-12 14:35:00,
2013-03-12 10:40:00,39.0,35.5,29.80,NW,315,10.1,10.1,87,0.00,,,0.00,WUHU21623XXSP,2013-03-12 14:40:00,
2013-03-12 10:45:00,39.0,35.5,29.80,WNW,292,6.9,10.1,87,0.00,,,0.00,WUHU21623XXSP,2013-03-12 14:45:00,
2013-03-12 10:50:00,38.5,34.9,29.80,WNW,292,4.7,6.9,87,0.00,,,0.00,WUHU21623XXSP,2013-03-12 14:50:00,
2013-03-12 10:55:00,38.3,34.7,29.80,WNW,292,4.7,6.9,87,0.00,,,0.00,WUHU21623XXSP,2013-03-12 14:55:00,
2013-03-12 11:00:00,38.1,34.6,29.80,WNW,292,0.0,8.5,87,0.00,,,0.00,WUHU21623XXSP,2013-03-12 15:00:00,
2013-03-12 11:05:00,37.9,34.7,29.80,WNW,292,4.3,8.5,88,0.00,,,0.00,WUHU21623XXSP,2013-03-12 15:05:00,
2013-03-12 11:10:00,37.9,34.7,29.80,West,270,3.4,5.8,88,0.00,,,0.00,WUHU21623XXSP,2013-03-12 15:10:00,
2013-03-12 11:15:00,37.9,34.7,29.80,WSW,247,0.0,5.8,88,0.00,,,0.00,WUHU21623XXSP,2013-03-12 15:15:00,
2013-03-12 11:20:00,37.9,34.6,29.81,WSW,247,0.0,3.4,88,0.00,,,0.00,WUHU21623XXSP,2013-03-12 15:20:00,
2013-03-12 11:25:00,37.6,34.3,29.81,WNW,292,2.7,7.8,88,0.00,,,0.00,WUHU21623XXSP,2013-03-12 15:25:00,
2013-03-12 11:30:00,37.6,34.3,29.81,WNW,292,7.4,7.8,88,0.00,,,0.00,WUHU21623XXSP,2013-03-12 15:30:00,
2013-03-12 11:35:00,37.2,33.9,29.81,WNW,292,6.3,8.1,88,0.00,,,0.00,WUHU21623XXSP,2013-03-12 15:35:00,
2013-03-12 11:40:00,37.2,33.9,29.81,NW,315,3.8,8.1,88,0.00,,,0.00,WUHU21623XXSP,2013-03-12 15:40:00,
2013-03-12 11:45:00,37.0,33.8,29.81,WNW,292,3.8,5.6,88,0.00,,,0.00,WUHU21623XXSP,2013-03-12 15:45:00,
2013-03-12 11:50:00,37.0,33.8,29.81,WNW,292,4.3,4.3,88,0.00,,,0.00,WUHU21623XXSP,2013-03-12 15:50:00,
2013-03-12 11:55:00,37.0,33.8,29.81,NW,315,1.1,7.2,88,0.00,,,0.00,WUHU21623XXSP,2013-03-12 15:55:00,
2013-03-12 12:00:00,37.0,33.8,29.81,NW,315,4.3,11.4,88,0.00,,,0.00,WUHU21623XXSP,2013-03-12 16:00:00,
2013-03-12 12:05:00,37.0,33.8,29.80,WNW,292,1.3,11.4,88,0.00,,,0.00,WUHU21623XXSP,2013-03-12 16:05:00,
2013-03-12 12:10:00,37.0,33.8,29.80,WNW,292,0.0,2.5,88,0.00,,,0.00,WUHU21623XXSP,2013-03-12 16:10:00,
2013-03-12 12:15:00,37.0,33.8,29.81,NW,315,1.3,1.6,88,0.00,,,0.00,WUHU21623XXSP,2013-03-12 16:15:00,
2013-03-12 12:20:00,37.0,33.8,29.81,NW,315,3.1,9.6,88,0.00,,,0.00,WUHU21623XXSP,2013-03-12 16:20:00,
2013-03-12 12:25:00,37.0,33.8,29.81,NW,315,0.0,9.6,88,0.00,,,0.00,WUHU21623XXSP,2013-03-12 16:25:00,
2013-03-12 12:30:00,37.0,33.8,29.81,WNW,292,4.5,4.5,88,0.00,,,0.00,WUHU21623XXSP,2013-03-12 16:30:00,
2013-03-12 12:35:00,37.0,33.8,29.81,NW,315,2.9,4.5,88,0.00,,,0.00,WUHU21623XXSP,2013-03-12 16:35:00,
2013-03-12 12:40:00,36.9,33.6,29.81,WNW,292,0.0,5.1,88,0.00,,,0.00,WUHU21623XXSP,2013-03-12 16:40:00,
2013-03-12 12:45:00,36.7,33.4,29.80,NW,315,5.1,6.3,88,0.00,,,0.00,WUHU21623XXSP,2013-03-12 16:45:00,
2013-03-12 12:50:00,36.7,33.4,29.80,NW,315,4.9,6.3,88,0.00,,,0.00,WUHU21623XXSP,2013-03-12 16:50:00,
2013-03-12 12:55:00,36.9,33.6,29.80,NNW,337,6.5,6.5,88,0.00,,,0.00,WUHU21623XXSP,2013-03-12 16:55:00,
2013-03-12 13:00:00,36.9,33.6,29.80,NNW,337,5.8,6.5,88,0.00,,,0.00,WUHU21623XXSP,2013-03-12 17:00:00,
2013-03-12 13:05:00,37.0,33.8,29.80,NW,315,0.0,5.8,88,0.00,,,0.00,WUHU21623XXSP,2013-03-12 17:05:00,
2013-03-12 13:10:00,37.0,33.8,29.80,NW,315,0.0,0.2,88,0.00,,,0.00,WUHU21623XXSP,2013-03-12 17:10:00,
2013-03-12 13:15:00,37.2,33.9,29.80,NW,315,0.0,0.2,88,0.00,,,0.00,WUHU21623XXSP,2013-03-12 17:15:00,
2013-03-12 13:20:00,37.2,33.9,29.79,NW,315,0.0,4.9,88,0.00,,,0.00,WUHU21623XXSP,2013-03-12 17:20:00,
2013-03-12 13:25:00,37.2,33.9,29.79,NNW,337,0.7,4.9,88,0.00,,,0.00,WUHU21623XXSP,2013-03-12 17:25:00,
2013-03-12 13:30:00,37.2,33.9,29.79,NW,315,0.0,0.7,88,0.00,,,0.00,WUHU21623XXSP,2013-03-12 17:30:00,
2013-03-12 13:35:00,37.2,33.9,29.79,NNW,337,2.9,2.9,88,0.00,,,0.00,WUHU21623XXSP,2013-03-12 17:35:00,
2013-03-12 13:40:00,36.9,33.6,29.79,NW,315,2.7,2.9,88,0.00,,,0.00,WUHU21623XXSP,2013-03-12 17:40:00,
2013-03-12 13:45:00,36.7,33.4,29.79,NW,315,3.6,3.6,88,0.00,,,0.00,WUHU21623XXSP,2013-03-12 17:45:00,
2013-03-12 13:50:00,36.7,33.4,29.79,West,270,3.4,5.4,88,0.00,,,0.00,WUHU21623XXSP,2013-03-12 17:50:00,
2013-03-12 13:55:00,36.7,33.4,29.79,NW,315,0.0,5.4,88,0.00,,,0.00,WUHU21623XXSP,2013-03-12 17:55:00,
2013-03-12 14:00:00,36.5,33.2,29.79,NW,315,0.0,0.9,88,0.00,,,0.00,WUHU21623XXSP,2013-03-12 18:00:00,
2013-03-12 14:05:00,36.5,33.2,29.79,WNW,292,1.8,1.8,88,0.00,,,0.00,WUHU21623XXSP,2013-03-12 18:05:00,
2013-03-12 14:10:00,36.3,33.0,29.79,NW,315,0.0,7.6,88,0.00,,,0.00,WUHU21623XXSP,2013-03-12 18:10:00,
2013-03-12 14:15:00,36.5,33.2,29.79,NW,315,2.7,7.6,88,0.00,,,0.00,WUHU21623XXSP,2013-03-12 18:15:00,
2013-03-12 14:20:00,36.3,33.0,29.78,NW,315,4.7,4.7,88,0.00,,,0.00,WUHU21623XXSP,2013-03-12 18:20:00,
2013-03-12 14:25:00,36.1,32.9,29.79,NNW,337,3.8,4.7,88,0.00,,,0.00,WUHU21623XXSP,2013-03-12 18:25:00,
2013-03-12 14:30:00,36.1,32.9,29.79,WNW,292,0.7,5.4,88,0.00,,,0.00,WUHU21623XXSP,2013-03-12 18:30:00,
2013-03-12 14:35:00,36.0,32.7,29.78,West,270,0.0,5.4,88,0.00,,,0.00,WUHU21623XXSP,2013-03-12 18:35:00,
2013-03-12 14:40:00,35.8,32.5,29.78,WNW,292,0.0,2.5,88,0.00,,,0.00,WUHU21623XXSP,2013-03-12 18:40:00,
2013-03-12 14:45:00,35.8,32.5,29.78,NW,315,1.3,2.5,88,0.00,,,0.00,WUHU21623XXSP,2013-03-12 18:45:00,
2013-03-12 14:50:00,35.4,32.1,29.77,WNW,292,0.0,2.2,88,0.00,,,0.00,WUHU21623XXSP,2013-03-12 18:50:00,
2013-03-12 14:55:00,35.4,32.1,29.77,NW,315,5.1,5.1,88,0.00,,,0.00,WUHU21623XXSP,2013-03-12 18:55:00,
2013-03-12 15:00:00,35.4,32.1,29.77,NW,315,0.0,5.1,88,0.00,,,0.00,WUHU21623XXSP,2013-03-12 19:00:00,
2013-03-12 15:05:00,35.4,32.1,29.77,WNW,292,6.5,6.5,88,0.00,,,0.00,WUHU21623XXSP,2013-03-12 19:05:00,
2013-03-12 15:10:00,35.4,32.1,29.77,NNW,337,4.0,6.5,88,0.00,,,0.00,WUHU21623XXSP,2013-03-12 19:10:00,
2013-03-12 15:15:00,35.4,32.1,29.77,WNW,292,2.2,5.1,88,0.00,,,0.00,WUHU21623XXSP,2013-03-12 19:15:00,
2013-03-12 15:20:00,35.4,32.1,29.76,NNW,337,3.6,3.6,88,0.00,,,0.00,WUHU21623XXSP,2013-03-12 19:20:00,
2013-03-12 15:25:00,35.4,32.1,29.77,NW,315,0.0,3.6,88,0.00,,,0.00,WUHU21623XXSP,2013-03-12 19:25:00,
2013-03-12 15:30:00,35.4,32.1,29.77,WNW,292,0.0,3.4,88,0.00,,,0.00,WUHU21623XXSP,2013-03-12 19:30:00,
2013-03-12 15:35:00,35.4,32.1,29.77,NW,315,0.0,2.7,88,0.00,,,0.00,WUHU21623XXSP,2013-03-12 19:35:00,
2013-03-12 15:40:00,35.4,32.1,29.77,NW,315,3.1,3.1,88,0.00,,,0.00,WUHU21623XXSP,2013-03-12 19:40:00,
2013-03-12 15:45:00,35.4,32.1,29.77,NW,315,2.5,6.9,88,0.00,,,0.00,WUHU21623XXSP,2013-03-12 19:45:00,
2013-03-12 15:50:00,35.8,32.5,29.77,NW,315,6.0,6.9,88,0.00,,,0.00,WUHU21623XXSP,2013-03-12 19:50:00,
2013-03-12 15:55:00,35.8,32.5,29.77,NW,315,1.3,6.0,88,0.00,,,0.00,WUHU21623XXSP,2013-03-12 19:55:00,
2013-03-12 16:00:00,36.0,32.7,29.77,NW,315,0.2,4.3,88,0.00,,,0.00,WUHU21623XXSP,2013-03-12 20:00:00,
2013-03-12 16:05:00,36.0,32.7,29.77,NNW,337,2.7,3.4,88,0.00,,,0.00,WUHU21623XXSP,2013-03-12 20:05:00,
2013-03-12 16:10:00,35.8,32.5,29.78,NNW,337,0.0,2.7,88,0.00,,,0.00,WUHU21623XXSP,2013-03-12 20:10:00,
2013-03-12 16:15:00,35.8,32.5,29.78,WNW,292,0.0,2.7,88,0.00,,,0.00,WUHU21623XXSP,2013-03-12 20:15:00,
2013-03-12 16:20:00,35.8,32.5,29.78,NNW,337,2.5,2.5,88,0.00,,,0.00,WUHU21623XXSP,2013-03-12 20:20:00,
2013-03-12 16:25:00,36.0,32.7,29.79,NNW,337,1.1,5.6,88,0.00,,,0.00,WUHU21623XXSP,2013-03-12 20:25:00,
2013-03-12 16:30:00,36.0,32.7,29.79,NW,315,2.9,6.7,88,0.00,,,0.00,WUHU21623XXSP,2013-03-12 20:30:00,
2013-03-12 16:35:00,36.1,32.9,29.78,NW,315,2.7,6.7,88,0.00,,,0.00,WUHU21623XXSP,2013-03-12 20:35:00,
2013-03-12 16:40:00,36.1,32.9,29.79,NW,315,0.0,2.7,88,0.00,,,0.00,WUHU21623XXSP,2013-03-12 20:40:00,
2013-03-12 16:45:00,36.1,32.9,29.79,NW,315,0.0,0.9,88,0.00,,,0.00,WUHU21623XXSP,2013-03-12 20:45:00,
2013-03-12 16:50:00,36.1,32.9,29.79,NW,315,3.1,3.1,88,0.00,,,0.00,WUHU21623XXSP,2013-03-12 20:50:00,
2013-03-12 16:55:00,36.1,32.9,29.79,NNW,337,5.4,5.4,88,0.00,,,0.00,WUHU21623XXSP,2013-03-12 20:55:00,
2013-03-12 17:00:00,36.7,33.4,29.78,NNW,337,0.0,5.4,88,0.00,,,0.00,WUHU21623XXSP,2013-03-12 21:00:00,
2013-03-12 17:05:00,36.7,33.4,29.78,North,0,3.6,5.4,88,0.00,,,0.00,WUHU21623XXSP,2013-03-12 21:05:00,
2013-03-12 17:10:00,36.7,33.4,29.79,North,0,3.4,3.6,88,0.00,,,0.00,WUHU21623XXSP,2013-03-12 21:10:00,
2013-03-12 17:15:00,36.7,33.4,29.79,NNW,337,1.1,3.6,88,0.00,,,0.00,WUHU21623XXSP,2013-03-12 21:15:00,
2013-03-12 17:20:00,36.7,33.4,29.78,NNW,337,5.1,5.1,88,0.00,,,0.00,WUHU21623XXSP,2013-03-12 21:20:00,
2013-03-12 17:25:00,36.3,33.0,29.79,NNW,337,5.1,5.1,88,0.00,,,0.00,WUHU21623XXSP,2013-03-12 21:25:00,
2013-03-12 17:30:00,36.0,32.7,29.79,NNW,337,5.1,5.1,88,0.00,,,0.00,WUHU21623XXSP,2013-03-12 21:30:00,
2013-03-12 17:36:00,36.1,32.9,29.79,NNW,337,5.1,5.1,88,0.00,,,0.00,WUHU21623XXSP,2013-03-12 21:36:00,
2013-03-12 17:41:00,36.0,32.7,29.79,West,270,0.0,5.1,88,0.00,,,0.00,WUHU21623XXSP,2013-03-12 21:41:00,
2013-03-12 17:46:00,35.8,32.5,29.79,NW,315,1.8,1.8,88,0.00,,,0.00,WUHU21623XXSP,2013-03-12 21:46:00,
2013-03-12 17:51:00,35.6,32.3,29.79,NW,315,5.1,5.1,88,0.00,,,0.00,WUHU21623XXSP,2013-03-12 21:51:00,
2013-03-12 17:56:00,35.4,32.1,29.80,WNW,292,0.0,5.1,88,0.00,,,0.00,WUHU21623XXSP,2013-03-12 21:56:00,
2013-03-12 18:01:00,35.4,32.1,29.80,NW,315,3.8,3.8,88,0.00,,,0.00,WUHU21623XXSP,2013-03-12 22:01:00,
2013-03-12 18:06:00,35.4,32.1,29.80,West,270,0.0,3.8,88,0.00,,,0.00,WUHU21623XXSP,2013-03-12 22:06:00,
2013-03-12 18:11:00,35.4,32.1,29.81,West,270,2.9,3.8,88,0.00,,,0.00,WUHU21623XXSP,2013-03-12 22:11:00,
2013-03-12 18:16:00,35.2,32.0,29.81,West,270,2.9,2.9,88,0.00,,,0.00,WUHU21623XXSP,2013-03-12 22:16:00,
2013-03-12 18:21:00,35.2,32.0,29.81,NNW,337,0.9,2.9,88,0.00,,,0.00,WUHU21623XXSP,2013-03-12 22:21:00,
2013-03-12 18:26:00,35.2,32.0,29.81,NNW,337,0.9,2.9,88,0.00,,,0.00,WUHU21623XXSP,2013-03-12 22:26:00,
2013-03-12 18:31:00,35.2,32.0,29.81,NNW,337,0.9,0.9,88,0.00,,,0.00,WUHU21623XXSP,2013-03-12 22:31:00,
2013-03-12 18:36:00,35.1,31.8,29.82,WNW,292,0.0,0.9,88,0.00,,,0.00,WUHU21623XXSP,2013-03-12 22:36:00,
2013-03-12 18:41:00,34.9,31.6,29.81,WNW,292,0.0,0.0,88,0.00,,,0.00,WUHU21623XXSP,2013-03-12 22:41:00,
2013-03-12 18:46:00,34.9,31.6,29.82,NW,315,0.9,0.9,88,0.00,,,0.00,WUHU21623XXSP,2013-03-12 22:46:00,
2013-03-12 18:52:00,34.9,31.6,29.81,WNW,292,3.6,3.6,88,0.00,,,0.00,WUHU21623XXSP,2013-03-12 22:52:00,
2013-03-12 18:57:00,34.9,31.6,29.81,NW,315,2.2,3.6,88,0.00,,,0.00,WUHU21623XXSP,2013-03-12 22:57:00,
2013-03-12 19:02:00,34.9,31.6,29.81,WNW,292,0.0,2.2,88,0.00,,,0.00,WUHU21623XXSP,2013-03-12 23:02:00,
2013-03-12 19:07:00,34.9,31.6,29.82,NW,315,0.4,2.9,88,0.00,,,0.00,WUHU21623XXSP,2013-03-12 23:07:00,
2013-03-12 19:12:00,34.9,31.6,29.82,NW,315,4.5,4.5,88,0.00,,,0.00,WUHU21623XXSP,2013-03-12 23:12:00,
2013-03-12 19:17:00,34.9,31.6,29.82,NW,315,0.7,4.5,88,0.00,,,0.00,WUHU21623XXSP,2013-03-12 23:17:00,
2013-03-12 19:22:00,34.7,31.4,29.83,NW,315,0.0,2.9,88,0.00,,,0.00,WUHU21623XXSP,2013-03-12 23:22:00,
2013-03-12 19:27:00,34.7,31.4,29.83,NW,315,0.0,0.0,88,0.00,,,0.00,WUHU21623XXSP,2013-03-12 23:27:00,
2013-03-12 19:32:00,34.7,31.4,29.83,NW,315,0.0,0.0,88,0.00,,,0.00,WUHU21623XXSP,2013-03-12 23:32:00,
2013-03-12 19:37:00,34.5,31.2,29.84,NW,315,1.1,2.2,88,0.00,,,0.00,WUHU21623XXSP,2013-03-12 23:37:00,
2013-03-12 19:42:00,34.5,31.2,29.84,NW,315,0.0,1.1,88,0.00,,,0.00,WUHU21623XXSP,2013-03-12 23:42:00,
2013-03-12 19:47:00,34.7,31.4,29.84,NW,315,0.0,2.7,88,0.00,,,0.00,WUHU21623XXSP,2013-03-12 23:47:00,
2013-03-12 19:52:00,34.5,31.2,29.84,NW,315,0.0,2.7,88,0.00,,,0.00,WUHU21623XXSP,2013-03-12 23:52:00,
2013-03-12 19:57:00,34.5,31.2,29.84,NW,315,0.0,0.0,88,0.00,,,0.00,WUHU21623XXSP,2013-03-12 23:57:00,
2013-03-12 20:02:00,34.5,31.2,29.85,NW,315,0.0,0.0,88,0.00,,,0.00,WUHU21623XXSP,2013-03-13 00:02:00,
2013-03-12 20:07:00,34.5,31.2,29.85,NW,315,0.0,0.0,88,0.00,,,0.00,WUHU21623XXSP,2013-03-13 00:07:00,
2013-03-12 20:12:00,34.5,31.2,29.85,WNW,292,0.0,1.1,88,0.00,,,0.00,WUHU21623XXSP,2013-03-13 00:12:00,
2013-03-12 20:17:00,34.7,31.4,29.85,West,270,1.8,1.8,88,0.00,,,0.00,WUHU21623XXSP,2013-03-13 00:17:00,
2013-03-12 20:23:00,34.7,31.4,29.85,SW,225,0.0,1.8,88,0.00,,,0.00,WUHU21623XXSP,2013-03-13 00:23:00,
2013-03-12 20:28:00,34.7,31.4,29.86,NW,315,1.8,1.8,88,0.00,,,0.00,WUHU21623XXSP,2013-03-13 00:28:00,
2013-03-12 20:33:00,34.7,31.4,29.86,NNW,337,3.6,3.6,88,0.00,,,0.00,WUHU21623XXSP,2013-03-13 00:33:00,
2013-03-12 20:38:00,34.9,31.6,29.85,NNW,337,0.0,3.6,88,0.00,,,0.00,WUHU21623XXSP,2013-03-13 00:38:00,
2013-03-12 20:43:00,34.7,31.4,29.85,NNW,337,0.0,0.0,88,0.00,,,0.00,WUHU21623XXSP,2013-03-13 00:43:00,
2013-03-12 20:48:00,34.7,31.4,29.85,NNW,337,0.0,0.0,88,0.00,,,0.00,WUHU21623XXSP,2013-03-13 00:48:00,
2013-03-12 20:53:00,34.7,31.4,29.85,NNW,337,0.0,0.0,88,0.00,,,0.00,WUHU21623XXSP,2013-03-13 00:53:00,
2013-03-12 20:58:00,34.5,31.2,29.85,NNW,337,1.1,1.1,88,0.00,,,0.00,WUHU21623XXSP,2013-03-13 00:58:00,
2013-03-12 21:03:00,34.5,31.2,29.85,NNW,337,0.0,1.1,88,0.00,,,0.00,WUHU21623XXSP,2013-03-13 01:03:00,
2013-03-12 21:08:00,34.5,31.2,29.85,NNW,337,0.0,0.0,88,0.00,,,0.00,WUHU21623XXSP,2013-03-13 01:08:00,
2013-03-12 21:13:00,34.5,31.2,29.85,NW,315,0.0,2.5,88,0.00,,,0.00,WUHU21623XXSP,2013-03-13 01:13:00,
2013-03-12 21:18:00,34.3,31.1,29.85,NW,315,0.0,5.6,88,0.00,,,0.00,WUHU21623XXSP,2013-03-13 01:18:00,
2013-03-12 21:23:00,34.3,31.1,29.86,NNW,337,2.7,5.6,88,0.00,,,0.00,WUHU21623XXSP,2013-03-13 01:23:00,
2013-03-12 21:28:00,34.3,31.1,29.86,West,270,0.0,3.6,88,0.00,,,0.00,WUHU21623XXSP,2013-03-13 01:28:00,
2013-03-12 21:33:00,34.3,31.1,29.86,NW,315,0.0,3.8,88,0.00,,,0.00,WUHU21623XXSP,2013-03-13 01:33:00,
2013-03-12 21:38:00,34.3,31.1,29.87,WNW,292,2.5,4.9,88,0.00,,,0.00,WUHU21623XXSP,2013-03-13 01:38:00,
2013-03-12 21:43:00,34.3,31.1,29.87,WNW,292,0.0,4.9,88,0.00,,,0.00,WUHU21623XXSP,2013-03-13 01:43:00,
2013-03-12 21:48:00,34.3,31.1,29.87,WNW,292,0.0,1.3,88,0.00,,,0.00,WUHU21623XXSP,2013-03-13 01:48:00,
2013-03-12 21:53:00,34.3,31.1,29.86,NW,315,1.6,1.6,88,0.00,,,0.00,WUHU21623XXSP,2013-03-13 01:53:00,
2013-03-12 21:58:00,34.3,31.1,29.86,NW,315,0.0,1.6,88,0.00,,,0.00,WUHU21623XXSP,2013-03-13 01:58:00,
2013-03-12 22:03:00,34.3,31.1,29.87,WNW,292,0.0,0.0,88,0.00,,,0.00,WUHU21623XXSP,2013-03-13 02:03:00,
2013-03-12 22:08:00,34.0,30.7,29.87,NW,315,0.0,0.0,88,0.00,,,0.00,WUHU21623XXSP,2013-03-13 02:08:00,
2013-03-12 22:13:00,33.8,30.5,29.86,NW,315,0.0,0.0,88,0.00,,,0.00,WUHU21623XXSP,2013-03-13 02:13:00,
2013-03-12 22:18:00,33.8,30.5,29.87,NW,315,0.0,0.0,88,0.00,,,0.00,WUHU21623XXSP,2013-03-13 02:18:00,
2013-03-12 22:23:00,33.6,30.4,29.87,WNW,292,0.0,0.0,88,0.00,,,0.00,WUHU21623XXSP,2013-03-13 02:23:00,
2013-03-12 22:28:00,33.3,30.0,29.87,NW,315,0.0,0.0,88,0.00,,,0.00,WUHU21623XXSP,2013-03-13 02:28:00,
2013-03-12 22:33:00,33.1,29.9,29.87,WNW,292,0.0,0.0,88,0.00,,,0.00,WUHU21623XXSP,2013-03-13 02:33:00,
2013-03-12 22:38:00,33.4,30.2,29.87,WNW,292,2.0,2.0,88,0.00,,,0.00,WUHU21623XXSP,2013-03-13 02:38:00,
2013-03-12 22:43:00,33.6,30.4,29.87,WNW,292,0.0,2.0,88,0.00,,,0.00,WUHU21623XXSP,2013-03-13 02:43:00,
2013-03-12 22:48:00,33.6,30.4,29.86,WNW,292,0.9,0.9,88,0.00,,,0.00,WUHU21623XXSP,2013-03-13 02:48:00,
2013-03-12 22:53:00,33.6,30.1,29.86,WNW,292,0.0,3.6,87,0.00,,,0.00,WUHU21623XXSP,2013-03-13 02:53:00,
2013-03-12 22:56:00,31.8,28.4,29.85,West,270,0.0,0.0,87,0.00,,,0.00,WUHU21623XXSP,2013-03-13 02:56:00,
2013-03-12 22:58:00,33.6,30.1,29.86,WNW,292,0.0,3.6,87,0.00,,,0.00,WUHU21623XXSP,2013-03-13 02:58:00,
2013-03-12 23:01:00,31.8,28.4,29.85,West,270,0.0,0.0,87,0.00,,,0.00,WUHU21623XXSP,2013-03-13 03:01:00,
2013-03-12 23:03:00,33.6,30.1,29.86,WNW,292,0.0,0.0,87,0.00,,,0.00,WUHU21623XXSP,2013-03-13 03:03:00,
2013-03-12 23:08:00,33.4,29.9,29.86,West,270,1.6,2.5,87,0.00,,,0.00,WUHU21623XXSP,2013-03-13 03:08:00,
2013-03-12 23:13:00,33.4,29.9,29.86,West,270,0.0,2.5,87,0.00,,,0.00,WUHU21623XXSP,2013-03-13 03:13:00,
2013-03-12 23:18:00,33.3,29.8,29.86,West,270,0.0,0.0,87,0.00,,,0.00,WUHU21623XXSP,2013-03-13 03:18:00,
2013-03-12 23:23:00,33.1,29.6,29.86,West,270,0.0,0.0,87,0.00,,,0.00,WUHU21623XXSP,2013-03-13 03:23:00,
2013-03-12 23:28:00,32.9,29.4,29.86,West,270,0.0,0.0,87,0.00,,,0.00,WUHU21623XXSP,2013-03-13 03:28:00,
2013-03-12 23:33:00,32.7,29.3,29.86,West,270,0.0,0.0,87,0.00,,,0.00,WUHU21623XXSP,2013-03-13 03:33:00,
2013-03-12 23:38:00,32.5,29.1,29.86,West,270,0.0,0.0,87,0.00,,,0.00,WUHU21623XXSP,2013-03-13 03:38:00,
2013-03-12 23:43:00,32.4,28.9,29.85,West,270,0.0,0.0,87,0.00,,,0.00,WUHU21623XXSP,2013-03-13 03:43:00,
2013-03-12 23:48:00,32.2,28.8,29.85,West,270,0.0,0.0,87,0.00,,,0.00,WUHU21623XXSP,2013-03-13 03:48:00,
2013-03-12 23:53:00,31.8,28.4,29.85,West,270,0.0,0.0,87,0.00,,,0.00,WUHU21623XXSP,2013-03-13 03:53:00,
2013-03-12 23:58:00,31.8,28.4,29.85,West,270,0.0,0.0,87,0.00,,,0.00,WUHU21623XXSP,2013-03-13 03:58:00,